sensor_id;sensor_type;location;lat;lon;timestamp;P1;durP1;ratioP1;P2;durP2;ratioP2
33794;SDS011;51430;52.242;21.118;2022-11-11T00:01:13;31.40;;;26.30;;
33794;SDS011;51430;52.242;21.118;2022-11-11T00:03:43;32.50;;;23.80;;
33794;SDS011;51430;52.242;21.118;2022-11-11T00:06:13;29.80;;;23.70;;
33794;SDS011;51430;52.242;21.118;2022-11-11T00:08:45;28.10;;;22.40;;
33794;SDS011;51430;52.242;21.118;2022-11-11T00:11:15;29.40;;;21.20;;
33794;SDS011;51430;52.242;21.118;2022-11-11T00:13:44;29.10;;;21.00;;
33794;SDS011;51430;52.242;21.118;2022-11-11T00:16:13;29.00;;;22.20;;
33794;SDS011;51430;52.242;21.118;2022-11-11T00:18:46;30.40;;;22.60;;
33794;SDS011;51430;52.242;21.118;2022-11-11T00:21:33;30.40;;;20.30;;
33794;SDS011;51430;52.242;21.118;2022-11-11T00:24:21;25.40;;;19.40;;
33794;SDS011;51430;52.242;21.118;2022-11-11T00:27:11;24.30;;;18.20;;
33794;SDS011;51430;52.242;21.118;2022-11-11T00:29:47;24.50;;;18.50;;
33794;SDS011;51430;52.242;21.118;2022-11-11T00:32:15;24.50;;;18.00;;
33794;SDS011;51430;52.242;21.118;2022-11-11T00:34:58;25.30;;;18.40;;
33794;SDS011;51430;52.242;21.118;2022-11-11T00:37:46;24.90;;;18.40;;
33794;SDS011;51430;52.242;21.118;2022-11-11T00:40:17;26.70;;;17.70;;
33794;SDS011;51430;52.242;21.118;2022-11-11T00:42:45;26.70;;;18.60;;
33794;SDS011;51430;52.242;21.118;2022-11-11T00:45:14;23.90;;;17.50;;
33794;SDS011;51430;52.242;21.118;2022-11-11T00:47:42;24.50;;;17.70;;
33794;SDS011;51430;52.242;21.118;2022-11-11T00:50:50;23.90;;;17.70;;
33794;SDS011;51430;52.242;21.118;2022-11-11T00:53:28;22.50;;;17.00;;
33794;SDS011;51430;52.242;21.118;2022-11-11T00:56:00;24.70;;;18.40;;
33794;SDS011;51430;52.242;21.118;2022-11-11T00:58:28;26.40;;;19.20;;
33794;SDS011;51430;52.242;21.118;2022-11-11T01:00:57;26.80;;;19.40;;
33794;SDS011;51430;52.242;21.118;2022-11-11T01:03:25;29.00;;;19.80;;
33794;SDS011;51430;52.242;21.118;2022-11-11T01:05:58;26.00;;;19.10;;
33794;SDS011;51430;52.242;21.118;2022-11-11T01:08:28;29.20;;;20.70;;
33794;SDS011;51430;52.242;21.118;2022-11-11T01:10:57;25.70;;;19.20;;
33794;SDS011;51430;52.242;21.118;2022-11-11T01:13:28;27.00;;;19.50;;
33794;SDS011;51430;52.242;21.118;2022-11-11T01:16:04;25.90;;;18.80;;
33794;SDS011;51430;52.242;21.118;2022-11-11T01:18:35;24.90;;;19.10;;
33794;SDS011;51430;52.242;21.118;2022-11-11T01:21:05;27.20;;;19.10;;
33794;SDS011;51430;52.242;21.118;2022-11-11T01:23:47;24.10;;;19.10;;
33794;SDS011;51430;52.242;21.118;2022-11-11T01:26:24;24.10;;;19.10;;
33794;SDS011;51430;52.242;21.118;2022-11-11T01:28:58;27.60;;;19.30;;
33794;SDS011;51430;52.242;21.118;2022-11-11T01:31:26;24.60;;;19.60;;
33794;SDS011;51430;52.242;21.118;2022-11-11T01:33:55;24.70;;;19.40;;
33794;SDS011;51430;52.242;21.118;2022-11-11T01:36:24;21.80;;;19.20;;
33794;SDS011;51430;52.242;21.118;2022-11-11T01:38:55;25.20;;;19.80;;
33794;SDS011;51430;52.242;21.118;2022-11-11T01:41:30;28.60;;;19.50;;
33794;SDS011;51430;52.242;21.118;2022-11-11T01:49:15;26.20;;;18.80;;
33794;SDS011;51430;52.242;21.118;2022-11-11T01:54:55;25.60;;;18.90;;
33794;SDS011;51430;52.242;21.118;2022-11-11T02:00:19;24.10;;;18.40;;
33794;SDS011;51430;52.242;21.118;2022-11-11T02:02:49;25.70;;;19.00;;
33794;SDS011;51430;52.242;21.118;2022-11-11T02:05:22;23.60;;;18.30;;
33794;SDS011;51430;52.242;21.118;2022-11-11T02:08:12;24.10;;;17.50;;
33794;SDS011;51430;52.242;21.118;2022-11-11T02:11:02;25.50;;;18.10;;
33794;SDS011;51430;52.242;21.118;2022-11-11T02:13:40;24.40;;;18.10;;
33794;SDS011;51430;52.242;21.118;2022-11-11T02:16:29;28.10;;;19.00;;
33794;SDS011;51430;52.242;21.118;2022-11-11T02:18:57;24.60;;;18.00;;
33794;SDS011;51430;52.242;21.118;2022-11-11T02:21:36;24.30;;;17.70;;
33794;SDS011;51430;52.242;21.118;2022-11-11T02:24:14;25.90;;;18.80;;
33794;SDS011;51430;52.242;21.118;2022-11-11T02:26:46;26.00;;;18.40;;
33794;SDS011;51430;52.242;21.118;2022-11-11T02:29:25;25.30;;;18.60;;
33794;SDS011;51430;52.242;21.118;2022-11-11T02:31:53;25.60;;;17.80;;
33794;SDS011;51430;52.242;21.118;2022-11-11T02:34:32;22.30;;;17.90;;
33794;SDS011;51430;52.242;21.118;2022-11-11T02:37:02;26.10;;;18.40;;
33794;SDS011;51430;52.242;21.118;2022-11-11T02:39:33;23.90;;;18.30;;
33794;SDS011;51430;52.242;21.118;2022-11-11T02:42:25;25.20;;;18.40;;
33794;SDS011;51430;52.242;21.118;2022-11-11T02:44:53;24.30;;;17.90;;
33794;SDS011;51430;52.242;21.118;2022-11-11T02:47:26;26.70;;;18.10;;
33794;SDS011;51430;52.242;21.118;2022-11-11T02:49:54;25.30;;;18.60;;
33794;SDS011;51430;52.242;21.118;2022-11-11T02:52:22;25.30;;;18.10;;
33794;SDS011;51430;52.242;21.118;2022-11-11T02:54:50;24.50;;;17.80;;
33794;SDS011;51430;52.242;21.118;2022-11-11T02:57:19;24.50;;;18.30;;
33794;SDS011;51430;52.242;21.118;2022-11-11T02:59:47;26.10;;;18.70;;
33794;SDS011;51430;52.242;21.118;2022-11-11T03:02:16;24.10;;;19.00;;
33794;SDS011;51430;52.242;21.118;2022-11-11T03:04:44;27.20;;;19.00;;
33794;SDS011;51430;52.242;21.118;2022-11-11T03:07:13;25.30;;;18.90;;
33794;SDS011;51430;52.242;21.118;2022-11-11T03:09:41;25.30;;;18.40;;
33794;SDS011;51430;52.242;21.118;2022-11-11T03:12:10;26.70;;;18.40;;
33794;SDS011;51430;52.242;21.118;2022-11-11T03:14:38;26.80;;;18.50;;
33794;SDS011;51430;52.242;21.118;2022-11-11T03:17:07;25.10;;;19.70;;
33794;SDS011;51430;52.242;21.118;2022-11-11T03:19:54;24.70;;;18.20;;
33794;SDS011;51430;52.242;21.118;2022-11-11T03:22:42;26.70;;;18.10;;
33794;SDS011;51430;52.242;21.118;2022-11-11T03:25:25;28.30;;;18.90;;
33794;SDS011;51430;52.242;21.118;2022-11-11T03:30:36;25.00;;;20.10;;
33794;SDS011;51430;52.242;21.118;2022-11-11T03:33:06;25.70;;;20.10;;
33794;SDS011;51430;52.242;21.118;2022-11-11T03:35:34;27.50;;;20.70;;
33794;SDS011;51430;52.242;21.118;2022-11-11T03:38:03;26.90;;;21.00;;
33794;SDS011;51430;52.242;21.118;2022-11-11T03:40:43;26.80;;;20.40;;
33794;SDS011;51430;52.242;21.118;2022-11-11T03:43:13;28.30;;;20.00;;
33794;SDS011;51430;52.242;21.118;2022-11-11T03:45:43;28.20;;;20.90;;
33794;SDS011;51430;52.242;21.118;2022-11-11T03:48:12;28.90;;;20.80;;
33794;SDS011;51430;52.242;21.118;2022-11-11T03:50:42;27.20;;;21.70;;
33794;SDS011;51430;52.242;21.118;2022-11-11T03:53:10;28.10;;;21.00;;
33794;SDS011;51430;52.242;21.118;2022-11-11T03:55:39;28.60;;;21.20;;
33794;SDS011;51430;52.242;21.118;2022-11-11T03:58:08;32.40;;;21.50;;
33794;SDS011;51430;52.242;21.118;2022-11-11T04:00:36;29.50;;;20.90;;
33794;SDS011;51430;52.242;21.118;2022-11-11T04:03:05;30.90;;;22.50;;
33794;SDS011;51430;52.242;21.118;2022-11-11T04:05:56;28.20;;;22.00;;
33794;SDS011;51430;52.242;21.118;2022-11-11T04:08:44;31.90;;;22.10;;
33794;SDS011;51430;52.242;21.118;2022-11-11T04:14:10;27.90;;;22.30;;
33794;SDS011;51430;52.242;21.118;2022-11-11T04:16:59;31.50;;;23.70;;
33794;SDS011;51430;52.242;21.118;2022-11-11T04:19:27;29.50;;;23.10;;
33794;SDS011;51430;52.242;21.118;2022-11-11T04:22:14;25.70;;;22.20;;
33794;SDS011;51430;52.242;21.118;2022-11-11T04:24:42;28.70;;;23.00;;
33794;SDS011;51430;52.242;21.118;2022-11-11T04:27:29;26.70;;;22.40;;
33794;SDS011;51430;52.242;21.118;2022-11-11T04:29:57;29.30;;;23.70;;
33794;SDS011;51430;52.242;21.118;2022-11-11T04:32:26;30.90;;;24.00;;
33794;SDS011;51430;52.242;21.118;2022-11-11T04:35:07;30.00;;;24.50;;
33794;SDS011;51430;52.242;21.118;2022-11-11T04:37:45;27.60;;;23.70;;
33794;SDS011;51430;52.242;21.118;2022-11-11T04:40:18;27.40;;;23.30;;
33794;SDS011;51430;52.242;21.118;2022-11-11T04:43:05;29.00;;;24.00;;
33794;SDS011;51430;52.242;21.118;2022-11-11T04:45:33;29.40;;;23.40;;
33794;SDS011;51430;52.242;21.118;2022-11-11T04:48:04;28.30;;;23.40;;
33794;SDS011;51430;52.242;21.118;2022-11-11T04:50:35;29.90;;;23.10;;
33794;SDS011;51430;52.242;21.118;2022-11-11T04:53:06;25.40;;;21.30;;
33794;SDS011;51430;52.242;21.118;2022-11-11T04:55:38;27.30;;;21.00;;
33794;SDS011;51430;52.242;21.118;2022-11-11T04:58:29;28.00;;;20.70;;
33794;SDS011;51430;52.242;21.118;2022-11-11T05:01:13;28.10;;;19.70;;
33794;SDS011;51430;52.242;21.118;2022-11-11T05:04:02;25.50;;;19.70;;
33794;SDS011;51430;52.242;21.118;2022-11-11T05:06:30;29.20;;;19.90;;
33794;SDS011;51430;52.242;21.118;2022-11-11T05:09:21;25.10;;;19.20;;
33794;SDS011;51430;52.242;21.118;2022-11-11T05:11:50;26.40;;;19.30;;
33794;SDS011;51430;52.242;21.118;2022-11-11T05:14:18;23.80;;;18.80;;
33794;SDS011;51430;52.242;21.118;2022-11-11T05:17:05;26.10;;;19.20;;
33794;SDS011;51430;52.242;21.118;2022-11-11T05:19:51;26.00;;;19.50;;
33794;SDS011;51430;52.242;21.118;2022-11-11T05:22:39;26.00;;;18.30;;
33794;SDS011;51430;52.242;21.118;2022-11-11T05:25:09;21.40;;;17.60;;
33794;SDS011;51430;52.242;21.118;2022-11-11T05:27:54;25.50;;;18.00;;
33794;SDS011;51430;52.242;21.118;2022-11-11T05:30:24;26.20;;;17.40;;
33794;SDS011;51430;52.242;21.118;2022-11-11T05:32:53;27.10;;;17.80;;
33794;SDS011;51430;52.242;21.118;2022-11-11T05:35:23;25.80;;;17.80;;
33794;SDS011;51430;52.242;21.118;2022-11-11T05:37:51;22.10;;;17.00;;
33794;SDS011;51430;52.242;21.118;2022-11-11T05:40:38;22.30;;;17.70;;
33794;SDS011;51430;52.242;21.118;2022-11-11T05:43:06;24.00;;;17.40;;
33794;SDS011;51430;52.242;21.118;2022-11-11T05:45:34;22.50;;;16.30;;
33794;SDS011;51430;52.242;21.118;2022-11-11T05:48:02;24.90;;;16.30;;
33794;SDS011;51430;52.242;21.118;2022-11-11T05:50:31;22.00;;;15.90;;
33794;SDS011;51430;52.242;21.118;2022-11-11T05:52:59;24.20;;;16.40;;
33794;SDS011;51430;52.242;21.118;2022-11-11T05:55:27;24.60;;;16.40;;
33794;SDS011;51430;52.242;21.118;2022-11-11T05:57:55;23.40;;;16.00;;
33794;SDS011;51430;52.242;21.118;2022-11-11T06:00:24;22.00;;;15.80;;
33794;SDS011;51430;52.242;21.118;2022-11-11T06:02:52;22.40;;;15.20;;
33794;SDS011;51430;52.242;21.118;2022-11-11T06:05:21;20.80;;;15.30;;
33794;SDS011;51430;52.242;21.118;2022-11-11T06:07:49;23.00;;;14.90;;
33794;SDS011;51430;52.242;21.118;2022-11-11T06:10:21;22.20;;;15.20;;
33794;SDS011;51430;52.242;21.118;2022-11-11T06:12:58;19.80;;;15.00;;
33794;SDS011;51430;52.242;21.118;2022-11-11T06:15:37;22.10;;;15.30;;
33794;SDS011;51430;52.242;21.118;2022-11-11T06:18:08;20.60;;;14.90;;
33794;SDS011;51430;52.242;21.118;2022-11-11T06:20:36;19.80;;;14.60;;
33794;SDS011;51430;52.242;21.118;2022-11-11T06:23:04;22.80;;;15.20;;
33794;SDS011;51430;52.242;21.118;2022-11-11T06:25:32;21.50;;;14.80;;
33794;SDS011;51430;52.242;21.118;2022-11-11T06:28:19;21.80;;;15.00;;
33794;SDS011;51430;52.242;21.118;2022-11-11T06:30:48;21.70;;;15.00;;
33794;SDS011;51430;52.242;21.118;2022-11-11T06:33:18;21.80;;;14.90;;
33794;SDS011;51430;52.242;21.118;2022-11-11T06:35:53;19.30;;;14.20;;
33794;SDS011;51430;52.242;21.118;2022-11-11T06:38:21;20.70;;;14.50;;
33794;SDS011;51430;52.242;21.118;2022-11-11T06:40:49;19.10;;;14.80;;
33794;SDS011;51430;52.242;21.118;2022-11-11T06:43:18;19.80;;;14.70;;
33794;SDS011;51430;52.242;21.118;2022-11-11T06:45:48;20.00;;;13.90;;
33794;SDS011;51430;52.242;21.118;2022-11-11T06:48:22;19.20;;;14.00;;
33794;SDS011;51430;52.242;21.118;2022-11-11T06:50:51;18.50;;;14.00;;
33794;SDS011;51430;52.242;21.118;2022-11-11T06:53:20;20.30;;;14.00;;
33794;SDS011;51430;52.242;21.118;2022-11-11T06:55:51;19.40;;;13.50;;
33794;SDS011;51430;52.242;21.118;2022-11-11T06:58:20;19.50;;;13.70;;
33794;SDS011;51430;52.242;21.118;2022-11-11T07:00:49;21.00;;;14.00;;
33794;SDS011;51430;52.242;21.118;2022-11-11T07:03:18;20.00;;;13.80;;
33794;SDS011;51430;52.242;21.118;2022-11-11T07:05:52;20.10;;;13.60;;
33794;SDS011;51430;52.242;21.118;2022-11-11T07:08:26;19.90;;;13.90;;
33794;SDS011;51430;52.242;21.118;2022-11-11T07:10:55;19.10;;;13.60;;
33794;SDS011;51430;52.242;21.118;2022-11-11T07:13:23;23.00;;;13.70;;
33794;SDS011;51430;52.242;21.118;2022-11-11T07:15:51;19.80;;;13.90;;
33794;SDS011;51430;52.242;21.118;2022-11-11T07:18:20;18.20;;;13.50;;
33794;SDS011;51430;52.242;21.118;2022-11-11T07:20:49;20.10;;;13.40;;
33794;SDS011;51430;52.242;21.118;2022-11-11T07:23:17;17.40;;;13.10;;
33794;SDS011;51430;52.242;21.118;2022-11-11T07:25:45;19.50;;;13.20;;
33794;SDS011;51430;52.242;21.118;2022-11-11T07:28:13;19.60;;;13.40;;
33794;SDS011;51430;52.242;21.118;2022-11-11T07:30:41;20.10;;;13.30;;
33794;SDS011;51430;52.242;21.118;2022-11-11T07:33:10;17.10;;;12.40;;
33794;SDS011;51430;52.242;21.118;2022-11-11T07:35:38;17.20;;;12.50;;
33794;SDS011;51430;52.242;21.118;2022-11-11T07:38:09;19.20;;;12.70;;
33794;SDS011;51430;52.242;21.118;2022-11-11T07:40:37;20.10;;;12.70;;
33794;SDS011;51430;52.242;21.118;2022-11-11T07:43:10;18.90;;;13.10;;
33794;SDS011;51430;52.242;21.118;2022-11-11T07:45:39;19.30;;;12.20;;
33794;SDS011;51430;52.242;21.118;2022-11-11T07:48:07;17.80;;;12.40;;
33794;SDS011;51430;52.242;21.118;2022-11-11T07:50:41;18.30;;;12.40;;
33794;SDS011;51430;52.242;21.118;2022-11-11T07:53:10;19.10;;;12.90;;
33794;SDS011;51430;52.242;21.118;2022-11-11T07:55:39;18.00;;;12.40;;
33794;SDS011;51430;52.242;21.118;2022-11-11T07:58:08;16.20;;;12.00;;
33794;SDS011;51430;52.242;21.118;2022-11-11T08:00:38;17.60;;;11.90;;
33794;SDS011;51430;52.242;21.118;2022-11-11T08:03:07;18.50;;;12.10;;
33794;SDS011;51430;52.242;21.118;2022-11-11T08:05:36;16.80;;;11.60;;
33794;SDS011;51430;52.242;21.118;2022-11-11T08:08:04;16.60;;;11.70;;
33794;SDS011;51430;52.242;21.118;2022-11-11T08:10:34;17.90;;;11.80;;
33794;SDS011;51430;52.242;21.118;2022-11-11T08:13:03;17.80;;;12.30;;
33794;SDS011;51430;52.242;21.118;2022-11-11T08:15:51;18.40;;;11.30;;
33794;SDS011;51430;52.242;21.118;2022-11-11T08:18:19;19.20;;;11.70;;
33794;SDS011;51430;52.242;21.118;2022-11-11T08:20:47;18.20;;;11.30;;
33794;SDS011;51430;52.242;21.118;2022-11-11T08:23:21;17.20;;;11.40;;
33794;SDS011;51430;52.242;21.118;2022-11-11T08:26:20;19.20;;;11.40;;
33794;SDS011;51430;52.242;21.118;2022-11-11T08:28:56;18.40;;;11.50;;
33794;SDS011;51430;52.242;21.118;2022-11-11T08:31:25;19.30;;;11.20;;
33794;SDS011;51430;52.242;21.118;2022-11-11T08:33:53;18.80;;;11.40;;
33794;SDS011;51430;52.242;21.118;2022-11-11T08:36:21;15.30;;;11.10;;
33794;SDS011;51430;52.242;21.118;2022-11-11T08:38:52;16.50;;;11.30;;
33794;SDS011;51430;52.242;21.118;2022-11-11T08:41:20;17.90;;;11.00;;
33794;SDS011;51430;52.242;21.118;2022-11-11T08:43:53;14.10;;;10.90;;
33794;SDS011;51430;52.242;21.118;2022-11-11T08:46:22;16.70;;;11.10;;
33794;SDS011;51430;52.242;21.118;2022-11-11T08:48:51;16.70;;;11.20;;
33794;SDS011;51430;52.242;21.118;2022-11-11T08:51:20;16.40;;;11.30;;
33794;SDS011;51430;52.242;21.118;2022-11-11T08:53:49;15.60;;;10.90;;
33794;SDS011;51430;52.242;21.118;2022-11-11T08:56:17;16.50;;;11.30;;
33794;SDS011;51430;52.242;21.118;2022-11-11T08:58:45;19.10;;;10.90;;
33794;SDS011;51430;52.242;21.118;2022-11-11T09:01:14;16.60;;;11.10;;
33794;SDS011;51430;52.242;21.118;2022-11-11T09:03:42;16.00;;;10.70;;
33794;SDS011;51430;52.242;21.118;2022-11-11T09:06:12;16.70;;;10.70;;
33794;SDS011;51430;52.242;21.118;2022-11-11T09:08:41;16.80;;;11.10;;
33794;SDS011;51430;52.242;21.118;2022-11-11T09:11:11;16.50;;;10.90;;
33794;SDS011;51430;52.242;21.118;2022-11-11T09:13:39;14.70;;;10.50;;
33794;SDS011;51430;52.242;21.118;2022-11-11T09:16:07;16.40;;;10.80;;
33794;SDS011;51430;52.242;21.118;2022-11-11T09:18:36;15.70;;;10.80;;
33794;SDS011;51430;52.242;21.118;2022-11-11T09:21:05;16.40;;;10.60;;
33794;SDS011;51430;52.242;21.118;2022-11-11T09:23:35;16.20;;;11.20;;
33794;SDS011;51430;52.242;21.118;2022-11-11T09:26:03;15.50;;;10.70;;
33794;SDS011;51430;52.242;21.118;2022-11-11T09:28:32;15.90;;;10.60;;
33794;SDS011;51430;52.242;21.118;2022-11-11T09:31:00;16.10;;;10.80;;
33794;SDS011;51430;52.242;21.118;2022-11-11T09:33:50;16.70;;;10.70;;
33794;SDS011;51430;52.242;21.118;2022-11-11T09:36:18;18.40;;;10.70;;
33794;SDS011;51430;52.242;21.118;2022-11-11T09:38:47;17.00;;;10.90;;
33794;SDS011;51430;52.242;21.118;2022-11-11T09:41:32;15.90;;;10.40;;
33794;SDS011;51430;52.242;21.118;2022-11-11T09:44:08;15.80;;;9.70;;
33794;SDS011;51430;52.242;21.118;2022-11-11T09:53:21;14.50;;;9.80;;
33794;SDS011;51430;52.242;21.118;2022-11-11T09:56:07;14.10;;;9.30;;
33794;SDS011;51430;52.242;21.118;2022-11-11T10:01:44;17.40;;;9.80;;
33794;SDS011;51430;52.242;21.118;2022-11-11T10:07:04;15.70;;;9.70;;
33794;SDS011;51430;52.242;21.118;2022-11-11T10:09:44;16.80;;;9.50;;
33794;SDS011;51430;52.242;21.118;2022-11-11T10:12:21;14.90;;;9.50;;
33794;SDS011;51430;52.242;21.118;2022-11-11T10:14:55;16.60;;;9.40;;
33794;SDS011;51430;52.242;21.118;2022-11-11T10:17:38;15.20;;;9.50;;
33794;SDS011;51430;52.242;21.118;2022-11-11T10:20:31;15.10;;;9.20;;
33794;SDS011;51430;52.242;21.118;2022-11-11T10:23:12;15.60;;;8.60;;
33794;SDS011;51430;52.242;21.118;2022-11-11T10:25:52;16.90;;;9.20;;
33794;SDS011;51430;52.242;21.118;2022-11-11T10:28:42;15.70;;;8.90;;
33794;SDS011;51430;52.242;21.118;2022-11-11T10:31:13;17.60;;;9.40;;
33794;SDS011;51430;52.242;21.118;2022-11-11T10:34:02;15.40;;;9.10;;
33794;SDS011;51430;52.242;21.118;2022-11-11T10:36:57;16.20;;;9.00;;
33794;SDS011;51430;52.242;21.118;2022-11-11T10:42:31;15.10;;;8.70;;
33794;SDS011;51430;52.242;21.118;2022-11-11T10:45:00;14.20;;;8.70;;
33794;SDS011;51430;52.242;21.118;2022-11-11T10:50:37;14.20;;;9.10;;
33794;SDS011;51430;52.242;21.118;2022-11-11T10:59:10;17.00;;;8.90;;
33794;SDS011;51430;52.242;21.118;2022-11-11T11:01:53;14.10;;;8.20;;
33794;SDS011;51430;52.242;21.118;2022-11-11T11:07:40;14.40;;;8.10;;
33794;SDS011;51430;52.242;21.118;2022-11-11T11:10:31;11.50;;;8.00;;
33794;SDS011;51430;52.242;21.118;2022-11-11T11:13:23;14.70;;;8.30;;
33794;SDS011;51430;52.242;21.118;2022-11-11T11:16:21;14.30;;;8.00;;
33794;SDS011;51430;52.242;21.118;2022-11-11T11:21:49;16.30;;;8.60;;
33794;SDS011;51430;52.242;21.118;2022-11-11T11:24:21;14.20;;;8.10;;
33794;SDS011;51430;52.242;21.118;2022-11-11T11:26:55;17.10;;;8.20;;
33794;SDS011;51430;52.242;21.118;2022-11-11T11:29:47;13.70;;;8.20;;
33794;SDS011;51430;52.242;21.118;2022-11-11T11:32:54;12.70;;;7.50;;
33794;SDS011;51430;52.242;21.118;2022-11-11T11:35:27;15.60;;;7.60;;
33794;SDS011;51430;52.242;21.118;2022-11-11T11:38:11;14.50;;;7.90;;
33794;SDS011;51430;52.242;21.118;2022-11-11T11:40:50;14.80;;;7.90;;
33794;SDS011;51430;52.242;21.118;2022-11-11T11:43:30;15.30;;;8.00;;
33794;SDS011;51430;52.242;21.118;2022-11-11T11:52:25;14.50;;;8.40;;
33794;SDS011;51430;52.242;21.118;2022-11-11T11:55:35;16.40;;;7.90;;
33794;SDS011;51430;52.242;21.118;2022-11-11T12:01:10;14.50;;;7.70;;
33794;SDS011;51430;52.242;21.118;2022-11-11T12:06:58;13.10;;;8.10;;
33794;SDS011;51430;52.242;21.118;2022-11-11T12:10:50;13.60;;;7.80;;
33794;SDS011;51430;52.242;21.118;2022-11-11T12:16:53;13.70;;;7.70;;
33794;SDS011;51430;52.242;21.118;2022-11-11T12:25:56;13.30;;;8.00;;
33794;SDS011;51430;52.242;21.118;2022-11-11T12:40:23;12.40;;;8.00;;
33794;SDS011;51430;52.242;21.118;2022-11-11T12:45:46;14.30;;;8.30;;
33794;SDS011;51430;52.242;21.118;2022-11-11T12:51:15;15.50;;;8.00;;
33794;SDS011;51430;52.242;21.118;2022-11-11T13:05:26;14.30;;;7.40;;
33794;SDS011;51430;52.242;21.118;2022-11-11T13:10:44;13.90;;;7.00;;
33794;SDS011;51430;52.242;21.118;2022-11-11T13:16:06;15.70;;;7.80;;
33794;SDS011;51430;52.242;21.118;2022-11-11T13:21:17;13.60;;;7.80;;
33794;SDS011;51430;52.242;21.118;2022-11-11T13:23:49;14.60;;;9.50;;
33794;SDS011;51430;52.242;21.118;2022-11-11T13:29:42;21.20;;;15.10;;
33794;SDS011;51430;52.242;21.118;2022-11-11T13:31:51;24.30;;;16.60;;
33794;SDS011;51430;52.242;21.118;2022-11-11T13:34:21;23.60;;;15.50;;
33794;SDS011;51430;52.242;21.118;2022-11-11T13:36:52;20.60;;;14.20;;
33794;SDS011;51430;52.242;21.118;2022-11-11T13:39:24;18.70;;;13.50;;
33794;SDS011;51430;52.242;21.118;2022-11-11T13:41:59;19.70;;;10.50;;
33794;SDS011;51430;52.242;21.118;2022-11-11T13:44:34;14.80;;;9.10;;
33794;SDS011;51430;52.242;21.118;2022-11-11T13:47:20;13.50;;;8.80;;
33794;SDS011;51430;52.242;21.118;2022-11-11T13:52:30;12.40;;;7.40;;
33794;SDS011;51430;52.242;21.118;2022-11-11T13:55:05;14.30;;;8.00;;
33794;SDS011;51430;52.242;21.118;2022-11-11T13:57:45;13.90;;;8.30;;
33794;SDS011;51430;52.242;21.118;2022-11-11T14:03:26;14.20;;;8.20;;
33794;SDS011;51430;52.242;21.118;2022-11-11T14:05:46;13.70;;;8.60;;
33794;SDS011;51430;52.242;21.118;2022-11-11T14:13:55;15.30;;;8.10;;
33794;SDS011;51430;52.242;21.118;2022-11-11T14:19:33;12.90;;;8.30;;
33794;SDS011;51430;52.242;21.118;2022-11-11T14:22:02;12.40;;;8.50;;
33794;SDS011;51430;52.242;21.118;2022-11-11T14:24:51;12.00;;;8.00;;
33794;SDS011;51430;52.242;21.118;2022-11-11T14:27:22;12.60;;;8.70;;
33794;SDS011;51430;52.242;21.118;2022-11-11T14:29:58;13.20;;;9.20;;
33794;SDS011;51430;52.242;21.118;2022-11-11T14:38:20;14.60;;;10.10;;
33794;SDS011;51430;52.242;21.118;2022-11-11T14:40:49;11.70;;;9.70;;
33794;SDS011;51430;52.242;21.118;2022-11-11T14:43:34;15.20;;;9.90;;
33794;SDS011;51430;52.242;21.118;2022-11-11T14:46:12;12.70;;;9.10;;
33794;SDS011;51430;52.242;21.118;2022-11-11T14:57:45;16.80;;;11.10;;
33794;SDS011;51430;52.242;21.118;2022-11-11T15:00:26;16.80;;;11.10;;
33794;SDS011;51430;52.242;21.118;2022-11-11T15:03:00;16.50;;;10.80;;
33794;SDS011;51430;52.242;21.118;2022-11-11T15:05:43;15.10;;;11.00;;
33794;SDS011;51430;52.242;21.118;2022-11-11T15:17:07;17.50;;;11.10;;
33794;SDS011;51430;52.242;21.118;2022-11-11T15:19:48;15.50;;;11.30;;
33794;SDS011;51430;52.242;21.118;2022-11-11T15:27:54;16.60;;;13.70;;
33794;SDS011;51430;52.242;21.118;2022-11-11T15:30:52;16.60;;;12.30;;
33794;SDS011;51430;52.242;21.118;2022-11-11T15:36:44;17.40;;;13.80;;
33794;SDS011;51430;52.242;21.118;2022-11-11T15:39:18;14.40;;;11.80;;
33794;SDS011;51430;52.242;21.118;2022-11-11T15:41:51;19.10;;;12.20;;
33794;SDS011;51430;52.242;21.118;2022-11-11T15:44:21;17.30;;;12.70;;
33794;SDS011;51430;52.242;21.118;2022-11-11T15:46:58;18.30;;;13.20;;
33794;SDS011;51430;52.242;21.118;2022-11-11T15:49:38;22.80;;;17.20;;
33794;SDS011;51430;52.242;21.118;2022-11-11T15:52:30;25.40;;;18.30;;
33794;SDS011;51430;52.242;21.118;2022-11-11T15:55:09;20.80;;;16.10;;
33794;SDS011;51430;52.242;21.118;2022-11-11T15:57:48;22.30;;;17.90;;
33794;SDS011;51430;52.242;21.118;2022-11-11T16:02:51;22.20;;;15.30;;
33794;SDS011;51430;52.242;21.118;2022-11-11T16:05:22;22.10;;;14.80;;
33794;SDS011;51430;52.242;21.118;2022-11-11T16:07:54;24.80;;;19.00;;
33794;SDS011;51430;52.242;21.118;2022-11-11T16:10:27;22.40;;;16.00;;
33794;SDS011;51430;52.242;21.118;2022-11-11T16:12:59;22.00;;;17.20;;
33794;SDS011;51430;52.242;21.118;2022-11-11T16:15:46;18.00;;;13.60;;
33794;SDS011;51430;52.242;21.118;2022-11-11T16:18:22;19.30;;;13.50;;
33794;SDS011;51430;52.242;21.118;2022-11-11T16:20:57;21.50;;;13.40;;
33794;SDS011;51430;52.242;21.118;2022-11-11T16:23:26;18.10;;;14.00;;
33794;SDS011;51430;52.242;21.118;2022-11-11T16:25:57;19.50;;;14.50;;
33794;SDS011;51430;52.242;21.118;2022-11-11T16:28:26;17.60;;;14.00;;
33794;SDS011;51430;52.242;21.118;2022-11-11T16:33:59;24.30;;;14.20;;
33794;SDS011;51430;52.242;21.118;2022-11-11T16:36:28;18.50;;;14.20;;
33794;SDS011;51430;52.242;21.118;2022-11-11T16:39:11;19.50;;;14.60;;
33794;SDS011;51430;52.242;21.118;2022-11-11T16:41:40;19.00;;;13.30;;
33794;SDS011;51430;52.242;21.118;2022-11-11T16:44:27;21.00;;;14.30;;
33794;SDS011;51430;52.242;21.118;2022-11-11T16:47:04;21.60;;;15.80;;
33794;SDS011;51430;52.242;21.118;2022-11-11T16:54:49;23.30;;;17.60;;
33794;SDS011;51430;52.242;21.118;2022-11-11T16:57:22;27.20;;;20.40;;
33794;SDS011;51430;52.242;21.118;2022-11-11T16:59:54;29.90;;;21.70;;
33794;SDS011;51430;52.242;21.118;2022-11-11T17:02:26;26.00;;;20.70;;
33794;SDS011;51430;52.242;21.118;2022-11-11T17:04:55;24.80;;;16.70;;
33794;SDS011;51430;52.242;21.118;2022-11-11T17:07:31;23.60;;;17.70;;
33794;SDS011;51430;52.242;21.118;2022-11-11T17:12:35;18.80;;;14.50;;
33794;SDS011;51430;52.242;21.118;2022-11-11T17:15:07;19.30;;;13.30;;
33794;SDS011;51430;52.242;21.118;2022-11-11T17:17:37;21.20;;;14.00;;
33794;SDS011;51430;52.242;21.118;2022-11-11T17:20:09;18.80;;;13.50;;
33794;SDS011;51430;52.242;21.118;2022-11-11T17:22:49;20.70;;;13.20;;
33794;SDS011;51430;52.242;21.118;2022-11-11T17:25:19;17.30;;;13.00;;
33794;SDS011;51430;52.242;21.118;2022-11-11T17:27:48;19.40;;;13.10;;
33794;SDS011;51430;52.242;21.118;2022-11-11T17:30:16;19.40;;;13.50;;
33794;SDS011;51430;52.242;21.118;2022-11-11T17:33:08;20.30;;;13.40;;
33794;SDS011;51430;52.242;21.118;2022-11-11T17:35:36;19.10;;;13.10;;
33794;SDS011;51430;52.242;21.118;2022-11-11T17:38:04;19.70;;;13.00;;
33794;SDS011;51430;52.242;21.118;2022-11-11T17:40:32;19.40;;;13.70;;
33794;SDS011;51430;52.242;21.118;2022-11-11T17:43:00;18.60;;;13.20;;